createdAt,value
2023-03-29T00:02:36.306Z,97946.00
2023-03-29T00:06:41.948Z,97938.72
2023-03-29T00:10:44.597Z,97928.22
2023-03-29T00:14:47.364Z,97927.63
2023-03-29T00:18:50.022Z,97930.16
2023-03-29T00:22:54.034Z,97931.56
2023-03-29T00:26:56.692Z,97937.16
2023-03-29T00:31:06.582Z,97932.69
2023-03-29T00:35:09.851Z,97938.19
2023-03-29T00:39:13.833Z,97922.75
2023-03-29T00:43:16.978Z,97922.06
2023-03-29T00:47:25.911Z,97933.41
2023-03-29T00:51:32.090Z,97924.91
2023-03-29T00:55:38.785Z,97927.38
2023-03-29T00:59:43.315Z,97928.53
2023-03-29T01:03:50.944Z,97925.16
2023-03-29T01:07:59.096Z,97925.75
2023-03-29T01:12:09.904Z,97913.84
2023-03-29T01:16:14.988Z,97910.63
2023-03-29T01:20:23.077Z,97902.78
2023-03-29T01:24:48.178Z,97901.31
2023-03-29T01:28:58.092Z,97895.59
2023-03-29T01:33:07.513Z,97886.16
2023-03-29T01:37:13.651Z,97882.38
2023-03-29T01:41:16.572Z,97871.69
2023-03-29T01:45:25.621Z,97878.28
2023-03-29T01:49:35.424Z,97858.94
2023-03-29T01:53:40.817Z,97853.06
2023-03-29T01:57:46.442Z,97853.47
2023-03-29T02:01:54.454Z,97848.31
2023-03-29T02:05:58.919Z,97842.28
2023-03-29T02:10:03.262Z,97835.16
2023-03-29T02:14:06.500Z,97827.19
2023-03-29T02:18:11.317Z,97821.44
2023-03-29T02:22:16.808Z,97813.75
2023-03-29T02:26:19.616Z,97812.75
2023-03-29T02:30:23.615Z,97803.94
2023-03-29T02:34:31.878Z,97811.09
2023-03-29T02:38:35.824Z,97798.06
2023-03-29T02:42:39.227Z,97795.69
2023-03-29T02:46:42.932Z,97805.22
2023-03-29T02:50:49.551Z,97809.03
2023-03-29T02:54:55.323Z,97797.63
2023-03-29T02:58:58.017Z,97809.22
2023-03-29T03:03:02.039Z,97792.53
2023-03-29T03:07:06.740Z,97799.53
2023-03-29T03:11:10.329Z,97799.69
2023-03-29T03:15:13.758Z,97792.03
2023-03-29T03:19:16.675Z,97781.84
2023-03-29T03:23:20.679Z,97785.66
2023-03-29T03:27:23.323Z,97784.28
2023-03-29T03:31:26.098Z,97800.28
2023-03-29T03:35:28.833Z,97772.88
2023-03-29T03:39:33.363Z,97764.59
2023-03-29T03:43:36.461Z,97757.56
2023-03-29T03:47:39.259Z,97755.19
2023-03-29T03:51:45.363Z,97754.13
2023-03-29T03:55:50.907Z,97744.28
2023-03-29T03:59:53.588Z,97757.66
2023-03-29T04:03:56.439Z,97743.81
2023-03-29T04:07:59.143Z,97744.13
2023-03-29T04:12:03.171Z,97751.94
2023-03-29T04:16:07.182Z,97753.22
2023-03-29T04:20:12.463Z,97744.66
2023-03-29T04:24:15.474Z,97734.28
2023-03-29T04:28:19.729Z,97731.63
2023-03-29T04:32:22.380Z,97728.28
2023-03-29T04:36:25.374Z,97722.25
2023-03-29T04:40:29.040Z,97723.69
2023-03-29T04:44:33.586Z,97721.34
2023-03-29T04:48:37.434Z,97717.78
2023-03-29T04:52:41.000Z,97722.97
2023-03-29T04:56:43.641Z,97718.63
2023-03-29T05:00:47.752Z,97738.94
2023-03-29T05:04:50.628Z,97728.44
2023-03-29T05:08:53.363Z,97717.97
2023-03-29T05:12:56.269Z,97712.47
2023-03-29T05:17:01.246Z,97716.38
2023-03-29T05:21:05.042Z,97722.25
2023-03-29T05:25:09.221Z,97728.59
2023-03-29T05:29:12.683Z,97731.09
2023-03-29T05:33:16.707Z,97733.59
2023-03-29T05:37:19.670Z,97713.72
2023-03-29T05:41:22.802Z,97694.00
2023-03-29T05:45:28.489Z,97697.56
2023-03-29T05:49:32.895Z,97700.66
2023-03-29T05:53:35.590Z,97697.13
2023-03-29T05:57:39.650Z,97694.88
2023-03-29T06:01:42.716Z,97703.31
2023-03-29T06:05:49.668Z,97697.31
2023-03-29T06:09:52.614Z,97693.63
2023-03-29T06:13:55.420Z,97686.09
2023-03-29T06:17:58.171Z,97707.94
2023-03-29T06:22:02.672Z,97695.31
2023-03-29T06:26:06.101Z,97678.22
2023-03-29T06:30:10.646Z,97697.63
2023-03-29T06:34:13.787Z,97699.69
2023-03-29T06:38:18.007Z,97690.38
2023-03-29T06:42:21.914Z,97687.28
2023-03-29T06:46:24.776Z,97689.09
2023-03-29T06:50:27.543Z,97698.47
2023-03-29T06:54:31.705Z,97698.41
2023-03-29T06:58:34.626Z,97707.03
2023-03-29T07:02:38.152Z,97695.28
2023-03-29T07:06:40.914Z,97698.34
2023-03-29T07:10:47.473Z,97699.19
2023-03-29T07:14:50.287Z,97709.16
2023-03-29T07:18:53.000Z,97703.81
2023-03-29T07:22:56.025Z,97707.75
2023-03-29T07:27:04.467Z,97706.13
2023-03-29T07:31:12.617Z,97706.13
2023-03-29T07:35:17.436Z,97705.22
2023-03-29T07:39:20.428Z,97724.31
2023-03-29T07:43:25.062Z,97726.66
2023-03-29T07:47:28.662Z,97710.69
2023-03-29T07:51:31.699Z,97723.41
2023-03-29T07:55:34.442Z,97718.19
2023-03-29T07:59:38.589Z,97719.91
2023-03-29T08:03:41.507Z,97718.75
2023-03-29T08:07:46.081Z,97713.81
2023-03-29T08:11:49.007Z,97700.09
2023-03-29T08:15:53.168Z,97706.13
2023-03-29T08:19:56.611Z,97705.16
2023-03-29T08:23:59.314Z,97706.34
2023-03-29T08:28:02.016Z,97698.19
2023-03-29T08:32:07.006Z,97701.41
2023-03-29T08:36:10.175Z,97704.28
2023-03-29T08:40:20.299Z,97696.97
2023-03-29T08:44:42.577Z,97707.69
2023-03-29T08:48:54.622Z,97711.03
2023-03-29T08:53:00.103Z,97713.72
2023-03-29T08:57:12.625Z,97716.38
2023-03-29T09:01:15.516Z,97698.28
2023-03-29T09:05:27.577Z,97696.03
2023-03-29T09:09:34.586Z,97700.88
2023-03-29T09:13:44.869Z,97700.91
2023-03-29T09:18:02.495Z,97694.44
2023-03-29T09:22:16.626Z,97699.31
2023-03-29T09:26:28.428Z,97699.97
2023-03-29T09:30:36.458Z,97690.22
2023-03-29T09:34:44.604Z,97696.66
2023-03-29T09:38:54.085Z,97688.91
2023-03-29T09:42:58.640Z,97690.25
2023-03-29T09:47:08.494Z,97685.22
2023-03-29T09:51:13.768Z,97676.44
2023-03-29T09:55:21.135Z,97676.91
2023-03-29T09:59:23.985Z,97669.69
2023-03-29T10:03:28.443Z,97660.88
2023-03-29T10:07:44.561Z,97661.06
2023-03-29T10:11:53.211Z,97663.00
2023-03-29T10:16:03.752Z,97652.28
2023-03-29T10:20:14.234Z,97650.28
2023-03-29T10:24:20.241Z,97652.06
2023-03-29T10:28:26.529Z,97643.44
2023-03-29T10:32:34.269Z,97645.47
2023-03-29T10:36:41.324Z,97638.69
2023-03-29T10:40:47.425Z,97645.84
2023-03-29T10:44:56.706Z,97637.06
2023-03-29T10:49:02.598Z,97632.13
2023-03-29T10:53:12.110Z,97633.78
2023-03-29T10:57:22.789Z,97621.59
2023-03-29T11:01:35.818Z,97629.22
2023-03-29T11:05:43.811Z,97635.59
2023-03-29T11:09:54.960Z,97633.94
2023-03-29T11:14:07.631Z,97617.84
2023-03-29T11:18:32.569Z,97626.53
2023-03-29T11:22:43.827Z,97626.03
2023-03-29T11:26:56.900Z,97624.97
2023-03-29T11:31:09.999Z,97615.81
2023-03-29T11:35:28.186Z,97619.81
2023-03-29T11:39:40.975Z,97612.63
2023-03-29T11:43:48.595Z,97615.19
2023-03-29T11:47:54.511Z,97610.66
2023-03-29T11:52:06.113Z,97614.03
2023-03-29T11:56:13.236Z,97609.16
2023-03-29T12:00:21.560Z,97599.28
2023-03-29T12:04:31.441Z,97604.56
2023-03-29T12:08:40.316Z,97596.28
2023-03-29T12:12:47.545Z,97591.34
2023-03-29T12:16:53.062Z,97585.75
2023-03-29T12:21:00.525Z,97584.47
2023-03-29T12:25:08.723Z,97579.66
2023-03-29T12:29:31.264Z,97576.31
2023-03-29T12:33:46.259Z,97577.31
2023-03-29T12:38:01.944Z,97571.13
2023-03-29T12:42:14.783Z,97574.44
2023-03-29T12:46:20.175Z,97570.28
2023-03-29T12:50:28.496Z,97558.88
2023-03-29T12:54:34.208Z,97568.84
2023-03-29T12:58:53.616Z,97571.13
2023-03-29T13:03:04.754Z,97561.56
2023-03-29T13:07:15.276Z,97561.81
2023-03-29T13:11:29.222Z,97562.09
2023-03-29T13:15:36.496Z,97542.38
2023-03-29T13:19:48.079Z,97550.44
2023-03-29T13:24:00.368Z,97552.53
2023-03-29T13:28:13.173Z,97544.63
2023-03-29T13:32:33.850Z,97540.09
2023-03-29T13:36:52.316Z,97534.69
2023-03-29T13:41:04.502Z,97535.69
2023-03-29T13:45:17.287Z,97529.22
2023-03-29T13:49:24.719Z,97519.03
2023-03-29T13:53:32.348Z,97516.75
2023-03-29T13:57:40.922Z,97514.19
2023-03-29T14:01:50.465Z,97520.59
2023-03-29T14:05:59.997Z,97509.81
2023-03-29T14:10:03.352Z,97497.94
2023-03-29T14:14:08.312Z,97497.09
2023-03-29T14:18:11.999Z,97498.16
2023-03-29T14:22:18.280Z,97498.81
2023-03-29T14:26:21.731Z,97497.81
2023-03-29T14:30:28.493Z,97503.25
2023-03-29T14:34:31.764Z,97503.84
2023-03-29T14:38:37.748Z,97500.09
2023-03-29T14:42:41.147Z,97490.94
2023-03-29T14:46:46.880Z,97494.97
2023-03-29T14:50:50.939Z,97504.75
2023-03-29T14:54:57.047Z,97497.69
2023-03-29T14:59:04.670Z,97499.13
2023-03-29T15:03:14.693Z,97486.88
2023-03-29T15:07:17.502Z,97486.81
2023-03-29T15:11:24.213Z,97486.63
2023-03-29T15:15:27.321Z,97489.78
2023-03-29T15:19:31.380Z,97491.03
2023-03-29T15:23:39.352Z,97476.03
2023-03-29T15:27:44.113Z,97474.34
2023-03-29T15:31:55.467Z,97458.50
2023-03-29T15:35:58.305Z,97455.94
2023-03-29T15:40:05.519Z,97454.25
2023-03-29T15:44:09.860Z,97444.78
2023-03-29T15:48:16.469Z,97439.97
2023-03-29T15:52:19.273Z,97442.53
2023-03-29T15:56:22.921Z,97445.50
2023-03-29T16:00:27.313Z,97442.75
2023-03-29T16:04:29.926Z,97439.09
2023-03-29T16:08:33.322Z,97437.88
2023-03-29T16:12:38.421Z,97430.25
2023-03-29T16:16:42.531Z,97421.16
2023-03-29T16:20:45.845Z,97431.56
2023-03-29T16:24:48.513Z,97426.78
2023-03-29T16:28:51.165Z,97421.66
2023-03-29T16:32:55.332Z,97435.38
2023-03-29T16:36:58.000Z,97435.38
2023-03-29T16:41:01.546Z,97435.59
2023-03-29T16:45:04.692Z,97439.34
2023-03-29T16:49:08.792Z,97423.56
2023-03-29T16:53:11.483Z,97415.44
2023-03-29T16:57:14.140Z,97414.84
2023-03-29T17:01:19.251Z,97424.16
2023-03-29T17:05:23.284Z,97415.25
2023-03-29T17:09:28.388Z,97422.69
2023-03-29T17:13:32.416Z,97409.19
2023-03-29T17:17:35.245Z,97421.81
2023-03-29T17:21:39.300Z,97420.56
2023-03-29T17:25:44.301Z,97424.28
2023-03-29T17:29:46.970Z,97425.47
2023-03-29T17:33:51.985Z,97420.41
2023-03-29T17:37:56.173Z,97432.19
2023-03-29T17:41:58.801Z,97435.44
2023-03-29T17:46:01.797Z,97427.78
2023-03-29T17:50:05.189Z,97424.91
2023-03-29T17:54:09.244Z,97426.09
2023-03-29T17:58:11.982Z,97418.72
2023-03-29T18:02:17.799Z,97436.91
2023-03-29T18:06:20.967Z,97432.88
2023-03-29T18:10:25.024Z,97436.09
2023-03-29T18:14:27.811Z,97440.41
2023-03-29T18:18:30.691Z,97443.69
2023-03-29T18:22:34.200Z,97443.09
2023-03-29T18:26:38.209Z,97446.25
2023-03-29T18:30:40.897Z,97449.56
2023-03-29T18:34:43.939Z,97457.09
2023-03-29T18:38:46.701Z,97446.78
2023-03-29T18:42:51.923Z,97448.75
2023-03-29T18:46:55.537Z,97449.13
2023-03-29T18:50:59.263Z,97460.44
2023-03-29T18:55:02.379Z,97446.72
2023-03-29T18:59:06.869Z,97442.69
2023-03-29T19:03:10.132Z,97453.63
2023-03-29T19:07:13.377Z,97458.38
2023-03-29T19:11:16.241Z,97452.03
2023-03-29T19:15:20.399Z,97455.63
2023-03-29T19:19:26.251Z,97465.41
2023-03-29T19:23:28.944Z,97454.72
2023-03-29T19:27:31.744Z,97452.50
2023-03-29T19:31:37.900Z,97450.47
2023-03-29T19:35:41.307Z,97446.31
2023-03-29T19:39:44.040Z,97449.91
2023-03-29T19:43:46.776Z,97448.19
2023-03-29T19:47:54.963Z,97442.44
2023-03-29T19:51:58.160Z,97432.91
2023-03-29T19:56:02.022Z,97421.56
2023-03-29T20:00:08.016Z,97427.00
2023-03-29T20:04:12.353Z,97424.09
2023-03-29T20:08:15.275Z,97426.31
2023-03-29T20:12:18.055Z,97407.88
2023-03-29T20:16:25.677Z,97409.81
2023-03-29T20:20:29.944Z,97415.63
2023-03-29T20:24:34.889Z,97423.31
2023-03-29T20:28:37.880Z,97413.16
2023-03-29T20:32:41.740Z,97401.50
2023-03-29T20:36:46.706Z,97413.03
2023-03-29T20:40:49.964Z,97405.50
2023-03-29T20:44:53.850Z,97408.00
2023-03-29T20:48:56.682Z,97394.97
2023-03-29T20:53:04.011Z,97398.44
2023-03-29T20:57:07.721Z,97402.50
2023-03-29T21:01:13.193Z,97408.97
2023-03-29T21:05:16.214Z,97404.44
2023-03-29T21:09:23.500Z,97393.75
2023-03-29T21:13:26.779Z,97411.97
2023-03-29T21:17:29.962Z,97416.16
2023-03-29T21:21:33.745Z,97431.88
2023-03-29T21:25:38.548Z,97419.09
2023-03-29T21:29:41.843Z,97405.41
2023-03-29T21:33:44.836Z,97397.53
2023-03-29T21:37:47.689Z,97361.19
2023-03-29T21:41:52.115Z,97370.88
2023-03-29T21:45:55.108Z,97362.19
2023-03-29T21:49:57.775Z,97348.41
2023-03-29T21:54:00.627Z,97347.09
2023-03-29T21:58:04.849Z,97351.66
2023-03-29T22:02:07.604Z,97346.66
2023-03-29T22:06:14.225Z,97349.66
2023-03-29T22:10:22.621Z,97345.19
2023-03-29T22:14:29.346Z,97326.75
2023-03-29T22:18:42.452Z,97323.41
2023-03-29T22:22:49.661Z,97315.91
2023-03-29T22:26:52.367Z,97329.25
2023-03-29T22:30:56.378Z,97339.81
2023-03-29T22:34:59.148Z,97334.44
2023-03-29T22:39:01.847Z,97334.72
2023-03-29T22:43:05.458Z,97334.06
2023-03-29T22:47:10.097Z,97351.00
2023-03-29T22:51:12.971Z,97338.03
2023-03-29T22:55:15.884Z,97316.94
2023-03-29T22:59:18.533Z,97309.81
2023-03-29T23:03:23.166Z,97314.84
2023-03-29T23:07:25.849Z,97309.59
2023-03-29T23:11:28.560Z,97292.50
2023-03-29T23:15:32.269Z,97281.34
2023-03-29T23:19:36.403Z,97280.81
2023-03-29T23:23:39.281Z,97286.59
2023-03-29T23:27:43.301Z,97281.31
2023-03-29T23:31:47.701Z,97279.84
2023-03-29T23:35:51.982Z,97271.59
2023-03-29T23:39:54.649Z,97263.47
2023-03-29T23:43:57.636Z,97270.31
2023-03-29T23:48:00.393Z,97275.50
2023-03-29T23:52:04.822Z,97274.03
2023-03-29T23:56:08.047Z,97261.63
